Time;durP1;ratioP1;P1;durP2;ratioP2;P2;SDS_P1;SDS_P2;PMS_P1;PMS_P2;Temp;Humidity;BMP_temperature;BMP_pressure;BME280_temperature;BME280_humidity;BME280_pressure;Samples;Min_cycle;Max_cycle;Signal;HPM_P1;HPM_P2
2023/01/29 00:02:03;;;;;;;5.03;3.05;;;-1.20;99.90;;;;;;7414928;19;20321;-87
2023/01/29 00:04:29;;;;;;;3.80;2.92;;;-1.20;99.90;;;;;;7414188;19;20353;-85
2023/01/29 00:06:54;;;;;;;3.97;3.03;;;-1.00;99.90;;;;;;7414264;19;20352;-86
2023/01/29 00:09:20;;;;;;;4.53;3.00;;;-1.20;99.90;;;;;;7414912;19;20329;-83
2023/01/29 00:11:46;;;;;;;3.70;2.73;;;-1.20;99.90;;;;;;7414854;19;20305;-84
2023/01/29 00:14:12;;;;;;;4.97;3.22;;;-1.20;99.90;;;;;;7416395;19;20341;-87
2023/01/29 00:16:43;;;;;;;3.92;3.17;;;-1.20;99.90;;;;;;7415921;19;25321;-90
2023/01/29 00:19:11;;;;;;;3.30;2.80;;;-1.30;99.90;;;;;;7411435;19;20316;-89
2023/01/29 00:21:36;;;;;;;3.65;2.72;;;-1.30;99.90;;;;;;7396813;19;20301;-83
2023/01/29 00:24:02;;;;;;;4.28;2.90;;;-1.40;99.90;;;;;;7416890;19;20336;-87
2023/01/29 00:26:28;;;;;;;2.90;2.70;;;-1.40;99.90;;;;;;7415010;19;20328;-88
2023/01/29 00:28:55;;;;;;;3.45;2.65;;;-1.40;99.90;;;;;;7414435;19;20333;-92
2023/01/29 00:31:22;;;;;;;6.23;2.90;;;-1.50;99.90;;;;;;7412333;19;20335;-92
2023/01/29 00:33:48;;;;;;;3.25;2.60;;;-1.50;99.90;;;;;;7413177;19;20354;-91
2023/01/29 00:36:15;;;;;;;3.67;2.90;;;-1.60;99.90;;;;;;7412419;19;20309;-89
2023/01/29 00:38:41;;;;;;;3.10;2.60;;;-1.60;99.90;;;;;;7409729;19;20309;-92
2023/01/29 00:46:39;;;;;;;3.13;2.53;;;-1.70;99.90;;;;;;7406892;19;20771;-89
2023/01/29 00:49:05;;;;;;;2.60;2.40;;;-1.60;99.90;;;;;;7407198;19;20333;-86
2023/01/29 00:51:31;;;;;;;3.70;2.70;;;-1.70;99.90;;;;;;7406799;19;20317;-91
2023/01/29 00:53:57;;;;;;;3.30;2.60;;;-1.80;99.90;;;;;;7407612;19;20363;-92
2023/01/29 00:56:24;;;;;;;3.10;2.80;;;-1.80;99.90;;;;;;7406818;19;20644;-90
2023/01/29 00:58:49;;;;;;;5.28;2.60;;;-1.80;99.90;;;;;;7406213;19;20319;-91
2023/01/29 01:01:15;;;;;;;3.37;2.40;;;-1.80;99.90;;;;;;7404476;19;20754;-87
2023/01/29 01:03:41;;;;;;;2.90;2.45;;;-1.80;99.90;;;;;;7407530;19;20330;-91
2023/01/29 01:06:07;;;;;;;4.20;2.70;;;-1.70;99.90;;;;;;7406866;19;20305;-93
2023/01/29 01:11:28;;;;;;;2.40;2.20;;;-1.80;99.90;;;;;;7304889;19;2004364;-85
2023/01/29 01:13:53;;;;;;;3.40;2.45;;;-1.80;99.90;;;;;;7406378;19;20332;-93
2023/01/29 01:16:19;;;;;;;3.03;2.80;;;-1.80;99.90;;;;;;7405650;19;20329;-88
2023/01/29 01:18:45;;;;;;;3.60;2.83;;;-1.80;99.90;;;;;;7406032;19;20332;-89
2023/01/29 01:21:10;;;;;;;4.63;2.67;;;-1.80;99.90;;;;;;7405242;19;20954;-90
2023/01/29 01:23:36;;;;;;;2.92;2.67;;;-1.80;99.90;;;;;;7405905;19;20383;-87
2023/01/29 01:26:02;;;;;;;2.60;2.40;;;-1.90;99.90;;;;;;7407885;19;20332;-91
2023/01/29 01:28:27;;;;;;;3.97;2.63;;;-1.90;99.90;;;;;;7405255;19;20372;-93
2023/01/29 01:30:53;;;;;;;4.43;2.47;;;-2.00;99.90;;;;;;7398623;19;20321;-94
2023/01/29 01:33:19;;;;;;;3.57;2.70;;;-2.00;99.90;;;;;;7404042;19;20320;-86
2023/01/29 01:35:44;;;;;;;3.10;2.20;;;-2.00;99.90;;;;;;7405382;19;20607;-92
2023/01/29 01:38:10;;;;;;;2.60;2.40;;;-2.00;99.90;;;;;;7405022;19;20305;-93
2023/01/29 01:40:36;;;;;;;2.83;2.63;;;-2.00;99.90;;;;;;7406608;19;20349;-92
2023/01/29 01:43:01;;;;;;;2.90;2.60;;;-2.10;99.90;;;;;;7404452;19;20375;-94
2023/01/29 01:45:31;;;;;;;3.30;2.57;;;-2.00;99.90;;;;;;7406435;19;20346;-88
2023/01/29 01:47:58;;;;;;;3.20;2.70;;;-2.00;99.90;;;;;;7402678;19;20348;-87
2023/01/29 01:50:29;;;;;;;2.80;2.50;;;-2.10;99.90;;;;;;7404854;19;20313;-92
2023/01/29 01:52:57;;;;;;;2.87;2.50;;;-2.10;99.90;;;;;;7406007;19;20316;-91
2023/01/29 01:55:24;;;;;;;3.00;2.80;;;-2.10;99.90;;;;;;7412842;19;20399;-90
2023/01/29 01:57:51;;;;;;;2.60;2.30;;;-2.10;99.90;;;;;;7411860;19;20639;-91
2023/01/29 02:00:17;;;;;;;2.70;2.50;;;-2.10;99.90;;;;;;7411029;19;20315;-89
2023/01/29 02:11:29;;;;;;;3.20;2.78;;;-2.30;99.90;;;;;;7309016;19;2004639;-92
2023/01/29 02:13:55;;;;;;;3.08;2.78;;;-2.20;99.90;;;;;;7410234;19;20324;-91
2023/01/29 02:16:24;;;;;;;3.25;2.95;;;-2.30;99.90;;;;;;7408867;19;20353;-94
2023/01/29 02:18:49;;;;;;;2.50;2.30;;;-2.30;99.90;;;;;;7409271;19;21040;-93
2023/01/29 02:21:34;;;;;;;3.08;2.70;;;-2.30;99.90;;;;;;7411846;19;20349;-94
2023/01/29 02:24:21;;;;;;;3.85;2.80;;;-2.40;99.90;;;;;;7307515;19;2004344;-92
2023/01/29 02:26:54;;;;;;;3.08;2.75;;;-2.20;99.90;;;;;;7308038;19;2004353;-88
2023/01/29 02:29:43;;;;;;;4.80;3.20;;;-2.30;99.90;;;;;;7410916;19;20838;-90
2023/01/29 02:32:16;;;;;;;3.38;2.45;;;-2.30;99.90;;;;;;7411806;19;20526;-91
2023/01/29 02:35:30;;;;;;;2.90;2.60;;;-2.20;99.90;;;;;;7414292;19;20320;-94
2023/01/29 02:38:17;;;;;;;3.30;2.80;;;-2.20;99.90;;;;;;7206184;19;2004371;-89
2023/01/29 02:40:45;;;;;;;3.28;2.70;;;-2.20;99.90;;;;;;7413817;19;20293;-93
2023/01/29 02:43:30;;;;;;;4.20;2.58;;;-2.10;99.90;;;;;;7412295;19;20320;-89
2023/01/29 02:46:10;;;;;;;3.60;3.08;;;-2.00;99.90;;;;;;7308343;19;2004156;-94
2023/01/29 02:48:43;;;;;;;3.72;2.80;;;-2.00;99.90;;;;;;7412264;19;20320;-91
2023/01/29 02:51:23;;;;;;;4.32;3.00;;;-2.00;99.90;;;;;;7413062;19;20361;-89
2023/01/29 02:53:55;;;;;;;4.78;2.90;;;-1.90;99.90;;;;;;7310366;19;2004504;-93
2023/01/29 02:56:23;;;;;;;2.78;2.50;;;-1.90;99.90;;;;;;7413666;19;20316;-88
2023/01/29 02:58:58;;;;;;;2.85;2.63;;;-1.90;99.90;;;;;;7414272;19;20321;-91
2023/01/29 03:01:30;;;;;;;3.15;2.80;;;-1.80;99.90;;;;;;7413381;19;20349;-91
2023/01/29 03:04:01;;;;;;;2.90;2.70;;;-1.80;99.90;;;;;;7410777;19;20335;-90
2023/01/29 03:06:34;;;;;;;3.27;2.90;;;-1.70;99.90;;;;;;7407557;19;20308;-90
2023/01/29 03:09:03;;;;;;;3.03;2.72;;;-1.70;99.90;;;;;;7416465;19;20328;-90
2023/01/29 03:11:34;;;;;;;3.10;2.80;;;-1.70;99.90;;;;;;7416589;19;20350;-88
2023/01/29 03:14:05;;;;;;;3.65;2.80;;;-1.60;99.90;;;;;;7413000;19;20320;-91
2023/01/29 03:16:36;;;;;;;3.33;2.83;;;-1.60;99.90;;;;;;7413922;19;20360;-90
2023/01/29 03:19:06;;;;;;;3.22;2.88;;;-1.60;99.90;;;;;;7413958;19;20357;-91
2023/01/29 03:21:50;;;;;;;4.85;2.80;;;-1.50;99.90;;;;;;7414131;19;20331;-90
2023/01/29 03:33:20;;;;;;;3.78;3.08;;;-1.60;99.90;;;;;;7308804;19;2004198;-91
2023/01/29 03:35:55;;;;;;;3.08;2.75;;;-1.60;99.90;;;;;;7414229;19;20313;-88
2023/01/29 03:38:20;;;;;;;3.40;3.10;;;-1.60;99.90;;;;;;7413654;19;20348;-88
2023/01/29 03:40:57;;;;;;;3.00;2.80;;;-1.60;99.90;;;;;;7415084;19;20330;-87
2023/01/29 03:43:33;;;;;;;5.10;3.42;;;-1.50;99.90;;;;;;7412110;19;20304;-88
2023/01/29 03:46:18;;;;;;;3.33;2.80;;;-1.50;99.90;;;;;;7414761;19;20413;-90
2023/01/29 03:48:52;;;;;;;5.22;3.08;;;-1.50;99.90;;;;;;7415470;19;20357;-88
2023/01/29 03:51:41;;;;;;;3.88;2.85;;;-1.50;99.90;;;;;;7311154;19;2017176;-90
2023/01/29 03:54:17;;;;;;;4.80;3.35;;;-1.50;99.90;;;;;;7413388;19;20341;-87
2023/01/29 03:56:53;;;;;;;3.50;3.10;;;-1.50;99.90;;;;;;7417533;19;20304;-87
2023/01/29 03:59:37;;;;;;;3.40;3.10;;;-1.50;99.90;;;;;;7311389;19;2005845;-90
2023/01/29 04:02:40;;;;;;;4.60;3.13;;;-1.50;99.90;;;;;;7310972;19;2004503;-85
2023/01/29 04:05:13;;;;;;;3.60;3.10;;;-1.40;99.90;;;;;;7414253;19;20304;-90
2023/01/29 04:07:51;;;;;;;3.95;3.42;;;-1.50;99.90;;;;;;7312338;19;2004160;-89
2023/01/29 04:10:18;;;;;;;3.25;2.95;;;-1.50;99.90;;;;;;7414167;19;20337;-88
2023/01/29 04:13:11;;;;;;;3.17;2.80;;;-1.50;99.90;;;;;;7414754;19;20344;-90
2023/01/29 04:15:45;;;;;;;3.58;2.90;;;-1.30;99.90;;;;;;7310913;19;2004421;-89
2023/01/29 04:18:11;;;;;;;3.45;3.13;;;-1.50;99.90;;;;;;7411526;19;20309;-89
2023/01/29 04:21:06;;;;;;;2.90;2.70;;;-1.50;99.90;;;;;;7311260;19;2004465;-89
2023/01/29 04:23:33;;;;;;;3.97;3.15;;;-1.40;99.90;;;;;;7411599;19;20308;-92
2023/01/29 04:26:13;;;;;;;3.22;2.90;;;-1.40;99.90;;;;;;7411627;19;20398;-90
2023/01/29 04:29:09;;;;;;;3.25;2.95;;;-1.40;99.90;;;;;;7410783;19;20301;-88
2023/01/29 04:31:44;;;;;;;4.40;3.15;;;-1.40;99.90;;;;;;7305668;19;2004228;-91
2023/01/29 04:34:28;;;;;;;3.97;3.30;;;-1.40;99.90;;;;;;7408821;19;20305;-90
2023/01/29 04:37:03;;;;;;;3.70;2.90;;;-1.40;99.90;;;;;;7308207;19;2004477;-89
2023/01/29 04:39:30;;;;;;;4.50;3.22;;;-1.40;99.90;;;;;;7410256;19;20324;-90
2023/01/29 04:42:12;;;;;;;3.15;2.88;;;-1.40;99.90;;;;;;7412555;19;20408;-87
2023/01/29 04:44:45;;;;;;;3.33;3.03;;;-1.40;99.90;;;;;;7412506;19;20308;-89
2023/01/29 04:47:35;;;;;;;4.00;3.20;;;-1.40;99.90;;;;;;7412602;19;20300;-87
2023/01/29 04:50:12;;;;;;;4.45;3.25;;;-1.40;99.90;;;;;;7308828;19;2004398;-88
2023/01/29 04:52:52;;;;;;;3.00;2.70;;;-1.40;99.90;;;;;;7413176;19;20296;-90
2023/01/29 04:55:43;;;;;;;3.80;3.40;;;-1.40;99.90;;;;;;7308267;19;2004334;-92
2023/01/29 04:58:16;;;;;;;3.45;3.15;;;-1.40;99.90;;;;;;7410256;19;20308;-91
2023/01/29 05:00:42;;;;;;;6.30;3.47;;;-1.30;99.90;;;;;;7411479;19;20295;-90
2023/01/29 05:03:10;;;;;;;3.78;3.38;;;-1.20;99.90;;;;;;7411429;19;20392;-87
2023/01/29 05:05:36;;;;;;;3.70;3.40;;;-1.20;99.90;;;;;;7413420;19;20335;-88
2023/01/29 05:08:02;;;;;;;4.15;3.70;;;-1.30;99.90;;;;;;7411883;19;20309;-86
2023/01/29 05:10:27;;;;;;;3.45;3.15;;;-1.30;99.90;;;;;;7410711;19;20329;-84
2023/01/29 05:13:01;;;;;;;3.93;3.47;;;-1.30;99.90;;;;;;7409185;19;20317;-88
2023/01/29 05:15:32;;;;;;;3.72;3.22;;;-1.30;99.90;;;;;;7412887;19;20314;-86
2023/01/29 05:18:01;;;;;;;3.85;3.45;;;-1.30;99.90;;;;;;7412878;19;20362;-86
2023/01/29 05:20:29;;;;;;;4.05;3.35;;;-1.20;99.90;;;;;;7411626;19;20324;-89
2023/01/29 05:22:55;;;;;;;4.20;3.45;;;-1.30;99.90;;;;;;7411049;19;20332;-89
2023/01/29 05:25:25;;;;;;;3.57;3.20;;;-1.20;99.90;;;;;;7412911;19;20346;-89
2023/01/29 05:28:10;;;;;;;3.92;3.47;;;-1.20;99.90;;;;;;7410032;19;20341;-86
2023/01/29 05:30:37;;;;;;;4.28;3.25;;;-1.20;99.90;;;;;;7410745;19;20352;-88
2023/01/29 05:33:03;;;;;;;4.07;3.67;;;-1.20;99.90;;;;;;7410313;19;20325;-91
2023/01/29 05:35:28;;;;;;;5.73;3.70;;;-1.20;99.90;;;;;;7412479;19;20352;-88
2023/01/29 05:37:55;;;;;;;5.85;3.70;;;-1.20;99.90;;;;;;7412081;19;20320;-89
2023/01/29 05:40:21;;;;;;;6.85;3.40;;;-1.20;99.90;;;;;;7411786;19;20302;-86
2023/01/29 05:42:47;;;;;;;5.10;3.87;;;-1.10;99.90;;;;;;7411266;19;20329;-80
2023/01/29 05:45:13;;;;;;;6.13;3.80;;;-1.20;99.90;;;;;;7414132;19;20348;-88
2023/01/29 05:47:39;;;;;;;5.28;3.42;;;-1.10;99.90;;;;;;7412139;19;20301;-87
2023/01/29 05:50:05;;;;;;;3.40;3.10;;;-1.00;99.90;;;;;;7413243;19;20316;-85
2023/01/29 05:52:30;;;;;;;4.95;3.90;;;-1.20;99.90;;;;;;7409774;19;20746;-89
2023/01/29 05:54:56;;;;;;;3.80;3.25;;;-1.20;99.90;;;;;;7411910;19;20316;-84
2023/01/29 05:57:23;;;;;;;4.23;3.60;;;-1.10;99.90;;;;;;7410472;19;20337;-86
2023/01/29 05:59:48;;;;;;;4.10;3.70;;;-1.20;99.90;;;;;;7403487;19;20378;-92
2023/01/29 06:02:14;;;;;;;4.07;3.67;;;-1.10;99.90;;;;;;7409058;19;20300;-88
2023/01/29 06:04:40;;;;;;;4.40;3.23;;;-1.10;99.90;;;;;;7408931;19;20375;-88
2023/01/29 06:07:05;;;;;;;5.32;3.33;;;-1.10;99.90;;;;;;7410298;19;20345;-88
2023/01/29 06:09:31;;;;;;;4.27;3.80;;;-1.10;99.90;;;;;;7409343;19;20329;-86
2023/01/29 06:11:56;;;;;;;3.80;3.40;;;-1.10;99.90;;;;;;7405978;19;20379;-89
2023/01/29 06:14:22;;;;;;;4.57;3.57;;;-1.10;99.90;;;;;;7409161;19;20305;-89
2023/01/29 06:16:48;;;;;;;4.05;3.40;;;-1.10;99.90;;;;;;7411275;19;20337;-88
2023/01/29 06:19:13;;;;;;;4.80;4.10;;;-1.10;99.90;;;;;;7412886;19;20303;-87
2023/01/29 06:21:39;;;;;;;4.03;3.63;;;-1.10;99.90;;;;;;7411549;19;20312;-88
2023/01/29 06:24:05;;;;;;;5.13;4.10;;;-1.10;99.90;;;;;;7411545;19;20329;-87
2023/01/29 06:26:30;;;;;;;4.40;3.90;;;-1.10;99.90;;;;;;7412142;19;20325;-86
2023/01/29 06:28:56;;;;;;;4.75;4.20;;;-1.10;99.90;;;;;;7411270;19;20612;-87
2023/01/29 06:31:21;;;;;;;6.43;3.90;;;-1.10;99.90;;;;;;7409729;19;20350;-87
2023/01/29 06:33:47;;;;;;;4.33;3.93;;;-1.10;99.90;;;;;;7410899;19;20317;-86
2023/01/29 06:36:13;;;;;;;4.85;4.13;;;-1.10;99.90;;;;;;7412792;19;20321;-88
2023/01/29 06:38:38;;;;;;;4.50;4.10;;;-1.00;99.90;;;;;;7411865;19;20289;-86
2023/01/29 06:41:11;;;;;;;7.10;5.33;;;-1.10;99.90;;;;;;7417962;19;20321;-90
2023/01/29 06:43:37;;;;;;;5.70;4.43;;;-1.00;99.90;;;;;;7417698;19;20345;-88
2023/01/29 06:46:03;;;;;;;4.43;3.85;;;-1.00;99.90;;;;;;7417682;19;20312;-90
2023/01/29 06:48:29;;;;;;;4.50;4.10;;;-0.90;99.90;;;;;;7417099;19;20364;-87
2023/01/29 06:50:55;;;;;;;6.72;4.70;;;-1.00;99.90;;;;;;7418323;19;20305;-89
2023/01/29 06:53:21;;;;;;;5.37;4.67;;;-1.00;99.90;;;;;;7416441;19;20317;-88
2023/01/29 06:55:53;;;;;;;6.28;4.63;;;-1.10;99.90;;;;;;7416908;19;20395;-91
2023/01/29 06:58:18;;;;;;;5.57;4.15;;;-1.00;99.90;;;;;;7313985;19;2012885;-88
2023/01/29 07:00:44;;;;;;;5.17;4.50;;;-1.00;99.90;;;;;;7418257;19;20361;-86
2023/01/29 07:03:10;;;;;;;6.50;4.70;;;-0.90;99.90;;;;;;7416210;19;20307;-88
2023/01/29 07:05:36;;;;;;;7.30;4.50;;;-0.90;99.90;;;;;;7418496;19;20324;-88
2023/01/29 07:08:01;;;;;;;7.30;4.82;;;-0.90;99.90;;;;;;7416400;19;20318;-89
2023/01/29 07:10:27;;;;;;;6.43;5.70;;;-0.90;99.90;;;;;;7416759;19;20337;-87
2023/01/29 07:12:52;;;;;;;5.05;4.55;;;-0.80;99.90;;;;;;7416480;19;20357;-92
2023/01/29 07:15:20;;;;;;;5.83;5.03;;;-0.90;99.90;;;;;;7417291;19;20353;-88
2023/01/29 07:17:57;;;;;;;6.77;5.27;;;-0.80;99.90;;;;;;7418232;19;20344;-86
2023/01/29 07:20:27;;;;;;;7.03;5.10;;;-0.90;99.90;;;;;;7313160;19;2003971;-89
2023/01/29 07:22:52;;;;;;;6.00;5.20;;;-0.90;99.90;;;;;;7417022;19;20348;-88
2023/01/29 07:25:18;;;;;;;6.88;5.82;;;-0.90;99.90;;;;;;7415657;19;20337;-89
2023/01/29 07:27:44;;;;;;;7.43;5.03;;;-0.90;99.90;;;;;;7417355;19;20304;-87
2023/01/29 07:30:10;;;;;;;7.17;5.83;;;-0.90;99.90;;;;;;7416327;19;20345;-88
2023/01/29 07:32:36;;;;;;;6.00;5.13;;;-0.90;99.90;;;;;;7416291;19;20376;-87
2023/01/29 07:35:01;;;;;;;6.17;5.33;;;-0.90;99.90;;;;;;7417507;19;20349;-89
2023/01/29 07:37:27;;;;;;;6.88;5.30;;;-0.90;99.90;;;;;;7417392;19;20345;-87
2023/01/29 07:39:52;;;;;;;10.07;5.60;;;-0.90;99.90;;;;;;7415980;19;20349;-89
2023/01/29 07:42:18;;;;;;;7.03;5.72;;;-0.90;99.90;;;;;;7415869;19;20325;-88
2023/01/29 07:44:43;;;;;;;6.47;5.80;;;-0.80;99.90;;;;;;7418275;19;20327;-89
2023/01/29 07:47:10;;;;;;;6.60;5.22;;;-0.90;99.90;;;;;;7415305;19;20350;-89
2023/01/29 07:49:36;;;;;;;7.75;5.68;;;-0.90;99.90;;;;;;7416588;19;20333;-87
2023/01/29 07:52:01;;;;;;;6.78;5.70;;;-1.00;99.90;;;;;;7415520;19;20324;-87
2023/01/29 07:54:27;;;;;;;7.57;5.97;;;-0.90;99.90;;;;;;7416330;19;20320;-89
2023/01/29 07:56:52;;;;;;;7.60;5.97;;;-1.00;99.90;;;;;;7411909;19;20336;-88
2023/01/29 07:59:18;;;;;;;9.07;6.40;;;-1.10;99.90;;;;;;7412932;19;20317;-87
2023/01/29 08:01:43;;;;;;;8.85;6.15;;;-1.10;99.90;;;;;;7413338;19;20297;-89
2023/01/29 08:04:09;;;;;;;8.13;6.80;;;-1.20;99.90;;;;;;7414369;19;20297;-88
2023/01/29 08:06:34;;;;;;;8.73;5.90;;;-1.20;99.90;;;;;;7414889;19;20590;-91
2023/01/29 08:09:01;;;;;;;6.70;5.70;;;-1.10;99.90;;;;;;7414445;19;20356;-86
2023/01/29 08:11:27;;;;;;;7.72;6.47;;;-1.10;99.90;;;;;;7413407;19;20332;-87
2023/01/29 08:13:53;;;;;;;8.68;6.22;;;-1.10;99.90;;;;;;7415320;19;20319;-92
2023/01/29 08:16:19;;;;;;;8.68;6.50;;;-1.00;99.90;;;;;;7416675;19;20305;-88
2023/01/29 08:18:47;;;;;;;8.63;6.90;;;-1.10;99.90;;;;;;7413969;19;20313;-86
2023/01/29 08:21:12;;;;;;;9.53;7.17;;;-1.20;99.90;;;;;;7407091;19;20318;-87
2023/01/29 08:23:38;;;;;;;10.40;7.38;;;-1.10;99.90;;;;;;7412150;19;20318;-88
2023/01/29 08:26:04;;;;;;;10.93;7.57;;;-1.10;99.90;;;;;;7415990;19;20374;-87
2023/01/29 08:28:29;;;;;;;9.50;6.47;;;-1.10;99.90;;;;;;7415754;19;20317;-91
2023/01/29 08:30:55;;;;;;;10.18;6.78;;;-1.00;99.90;;;;;;7414896;19;20344;-88
2023/01/29 08:33:21;;;;;;;9.40;6.85;;;-1.00;99.90;;;;;;7414804;19;20320;-87
2023/01/29 08:35:50;;;;;;;7.80;5.95;;;-1.00;99.90;;;;;;7416654;19;20317;-88
2023/01/29 08:38:16;;;;;;;11.07;7.45;;;-1.00;99.90;;;;;;7416417;19;20313;-88
2023/01/29 08:40:42;;;;;;;10.77;7.33;;;-1.00;99.90;;;;;;7415729;19;20273;-88
2023/01/29 08:43:09;;;;;;;9.40;7.13;;;-1.00;99.90;;;;;;7414625;19;20293;-87
2023/01/29 08:45:36;;;;;;;10.82;7.35;;;-1.00;99.90;;;;;;7416225;19;20347;-87
2023/01/29 08:48:01;;;;;;;9.95;7.28;;;-1.00;99.90;;;;;;7415820;19;20329;-87
2023/01/29 08:50:29;;;;;;;9.70;7.32;;;-0.90;99.90;;;;;;7406085;19;20348;-89
2023/01/29 08:52:58;;;;;;;9.75;7.38;;;-0.90;99.90;;;;;;7415521;19;20321;-88
2023/01/29 08:55:24;;;;;;;11.23;8.18;;;-0.90;99.90;;;;;;7414562;19;20313;-88
2023/01/29 08:57:50;;;;;;;10.00;6.90;;;-1.00;99.90;;;;;;7414034;19;20831;-88
2023/01/29 09:00:16;;;;;;;10.50;7.80;;;-0.90;99.90;;;;;;7415446;19;20324;-88
2023/01/29 09:02:42;;;;;;;9.55;7.82;;;-0.80;99.90;;;;;;7411717;19;20315;-88
2023/01/29 09:05:08;;;;;;;8.50;6.78;;;-0.70;99.90;;;;;;7415524;19;20312;-87
2023/01/29 09:07:33;;;;;;;10.40;7.45;;;-0.80;99.90;;;;;;7414839;19;20325;-87
2023/01/29 09:09:59;;;;;;;9.20;7.37;;;-0.80;99.90;;;;;;7414104;19;20340;-86
2023/01/29 09:12:25;;;;;;;11.88;7.57;;;-0.80;99.90;;;;;;7410533;19;20324;-87
2023/01/29 09:14:51;;;;;;;9.70;7.85;;;-0.80;99.90;;;;;;7412023;19;20346;-87
2023/01/29 09:17:16;;;;;;;7.80;6.50;;;-0.70;99.90;;;;;;7414520;19;20324;-88
2023/01/29 09:19:42;;;;;;;8.77;7.22;;;-0.60;99.90;;;;;;7414989;19;20333;-88
2023/01/29 09:22:07;;;;;;;10.87;8.17;;;-0.60;99.90;;;;;;7414223;19;20308;-86
2023/01/29 09:24:34;;;;;;;12.00;8.70;;;-0.60;99.90;;;;;;7414067;19;20339;-85
2023/01/29 09:27:00;;;;;;;9.15;6.90;;;-0.60;99.90;;;;;;7415018;19;20312;-84
2023/01/29 09:29:27;;;;;;;8.50;7.22;;;-0.70;99.90;;;;;;7413525;19;20338;-87
2023/01/29 09:31:52;;;;;;;10.68;8.13;;;-0.60;99.90;;;;;;7413267;19;20321;-86
2023/01/29 09:34:18;;;;;;;10.32;6.78;;;-0.70;99.90;;;;;;7412559;19;20419;-85
2023/01/29 09:36:44;;;;;;;13.53;8.93;;;-0.60;99.90;;;;;;7415336;19;20325;-87
2023/01/29 09:39:09;;;;;;;11.02;7.93;;;-0.60;99.90;;;;;;7415061;19;20916;-86
2023/01/29 09:41:46;;;;;;;8.53;6.73;;;-0.60;99.90;;;;;;7413452;19;20738;-88
2023/01/29 09:44:16;;;;;;;12.30;8.55;;;-0.60;99.90;;;;;;7408862;19;20301;-87
2023/01/29 09:46:45;;;;;;;7.53;6.70;;;-0.60;99.90;;;;;;7411210;19;20356;-88
2023/01/29 09:49:23;;;;;;;12.07;9.13;;;-0.50;99.90;;;;;;7409651;19;20289;-87
2023/01/29 09:52:04;;;;;;;11.10;8.20;;;-0.50;99.90;;;;;;7304831;19;2004334;-86
2023/01/29 09:54:35;;;;;;;9.45;7.40;;;-0.40;99.90;;;;;;7407622;19;20328;-86
2023/01/29 09:57:01;;;;;;;9.25;7.88;;;-0.40;99.90;;;;;;7415491;19;20313;-88
2023/01/29 09:59:29;;;;;;;9.23;7.32;;;-0.40;99.90;;;;;;7414021;19;20344;-91
2023/01/29 10:02:13;;;;;;;11.37;7.47;;;-0.40;99.90;;;;;;7412339;19;20377;-93
2023/01/29 10:04:44;;;;;;;12.73;8.02;;;-0.40;99.90;;;;;;7412791;19;20368;-87
2023/01/29 10:07:32;;;;;;;13.80;8.40;;;-0.40;99.90;;;;;;7413440;19;20325;-89
2023/01/29 10:10:07;;;;;;;9.55;6.90;;;-0.30;99.90;;;;;;7309465;19;2003995;-87
2023/01/29 10:12:57;;;;;;;14.35;7.85;;;-0.20;99.90;;;;;;7412754;19;20332;-90
2023/01/29 10:15:44;;;;;;;10.20;7.88;;;-0.20;99.90;;;;;;7317599;19;2004231;-88
2023/01/29 10:18:32;;;;;;;10.00;7.57;;;-0.20;99.90;;;;;;7419742;19;20293;-88
2023/01/29 10:21:29;;;;;;;10.90;8.30;;;-0.20;99.90;;;;;;7316690;19;2006865;-88
2023/01/29 10:24:09;;;;;;;10.23;7.18;;;-0.20;99.90;;;;;;7315430;19;2003965;-86
2023/01/29 10:26:36;;;;;;;10.95;7.82;;;-0.20;99.90;;;;;;7418887;19;20328;-87
2023/01/29 10:29:04;;;;;;;9.87;7.63;;;-0.10;99.90;;;;;;7419179;19;20337;-86
2023/01/29 10:31:31;;;;;;;11.50;8.73;;;-0.10;99.90;;;;;;7414240;19;20320;-87
2023/01/29 10:34:00;;;;;;;7.57;6.57;;;0.00;99.90;;;;;;7418439;19;20332;-87
2023/01/29 10:36:47;;;;;;;12.45;8.05;;;-0.10;99.90;;;;;;7417270;19;20844;-88
2023/01/29 10:39:19;;;;;;;14.27;9.50;;;0.10;99.90;;;;;;7417168;19;20312;-86
2023/01/29 10:42:11;;;;;;;12.17;7.97;;;0.00;99.90;;;;;;7418537;19;20299;-89
2023/01/29 10:44:55;;;;;;;10.70;7.67;;;0.10;99.90;;;;;;7316442;19;2012559;-89
2023/01/29 10:47:36;;;;;;;13.17;8.07;;;0.10;99.90;;;;;;7316544;19;2004547;-87
2023/01/29 10:50:27;;;;;;;11.63;8.00;;;0.10;99.90;;;;;;7417360;19;20390;-86
2023/01/29 10:53:27;;;;;;;10.02;7.90;;;0.10;99.90;;;;;;7315266;19;2004397;-88
2023/01/29 10:56:10;;;;;;;9.93;7.70;;;0.10;99.90;;;;;;7314571;19;2003995;-87
2023/01/29 10:58:42;;;;;;;10.85;7.93;;;0.10;99.90;;;;;;7418073;19;20441;-86
2023/01/29 11:01:11;;;;;;;9.80;8.32;;;0.00;99.90;;;;;;7418319;19;20329;-87
2023/01/29 11:03:36;;;;;;;11.20;7.70;;;0.10;99.90;;;;;;7417177;19;20329;-87
2023/01/29 11:06:20;;;;;;;10.60;7.95;;;0.10;99.90;;;;;;7417728;19;20387;-88
2023/01/29 11:09:23;;;;;;;11.48;8.32;;;0.10;99.90;;;;;;7418516;19;20328;-88
2023/01/29 11:11:53;;;;;;;10.23;8.02;;;0.10;99.90;;;;;;7212174;19;2004366;-87
2023/01/29 11:14:23;;;;;;;12.40;9.25;;;0.00;99.90;;;;;;7418940;19;20337;-88
2023/01/29 11:16:49;;;;;;;11.82;8.70;;;0.10;99.90;;;;;;7313686;19;2003933;-86
2023/01/29 11:19:15;;;;;;;9.87;7.70;;;0.00;99.90;;;;;;7418075;19;20300;-87
2023/01/29 11:21:51;;;;;;;14.15;8.82;;;0.00;99.90;;;;;;7417602;19;20301;-87
2023/01/29 11:24:17;;;;;;;11.75;9.05;;;0.10;99.90;;;;;;7415978;19;20305;-88
2023/01/29 11:26:44;;;;;;;9.10;7.23;;;0.10;99.90;;;;;;7414948;19;20308;-87
2023/01/29 11:29:31;;;;;;;9.35;7.32;;;0.10;99.90;;;;;;7415771;19;20585;-86
2023/01/29 11:31:58;;;;;;;13.77;8.38;;;0.10;99.90;;;;;;7309938;19;2004076;-86
2023/01/29 11:34:24;;;;;;;10.77;8.40;;;0.10;99.90;;;;;;7417057;19;20297;-87
2023/01/29 11:37:03;;;;;;;12.02;8.32;;;0.10;99.90;;;;;;7416339;19;20329;-86
2023/01/29 11:39:30;;;;;;;12.88;8.18;;;0.20;99.90;;;;;;7416443;19;20321;-88
2023/01/29 11:42:01;;;;;;;9.48;7.50;;;0.20;99.90;;;;;;7416688;19;20380;-88
2023/01/29 11:44:31;;;;;;;11.07;8.35;;;0.30;99.90;;;;;;7415132;19;20312;-86
2023/01/29 11:47:13;;;;;;;10.07;8.70;;;0.30;99.90;;;;;;7415310;19;20329;-88
2023/01/29 11:49:40;;;;;;;13.00;9.65;;;0.40;99.90;;;;;;7415717;19;20868;-87
2023/01/29 11:52:07;;;;;;;11.63;7.15;;;0.40;99.90;;;;;;7416266;19;20387;-86
2023/01/29 11:54:43;;;;;;;12.60;8.30;;;0.40;99.90;;;;;;7415475;19;20323;-87
2023/01/29 11:57:40;;;;;;;13.73;9.45;;;0.30;99.90;;;;;;7415330;19;20317;-87
2023/01/29 12:00:25;;;;;;;10.25;8.48;;;0.20;99.90;;;;;;7312215;19;2004206;-87
2023/01/29 12:02:59;;;;;;;9.60;7.93;;;0.40;99.90;;;;;;7312281;19;2004007;-88
2023/01/29 12:05:26;;;;;;;11.43;7.47;;;0.40;99.90;;;;;;7415832;19;20297;-88
2023/01/29 12:07:53;;;;;;;10.73;8.03;;;0.40;99.90;;;;;;7414295;19;20317;-86
2023/01/29 12:10:39;;;;;;;10.67;7.83;;;0.50;99.90;;;;;;7414133;19;20317;-86
2023/01/29 12:13:08;;;;;;;10.02;7.82;;;0.60;99.90;;;;;;7413307;19;20344;-88
2023/01/29 12:15:38;;;;;;;9.85;7.82;;;0.50;99.90;;;;;;7415658;19;20385;-88
2023/01/29 12:18:16;;;;;;;10.93;8.40;;;0.60;99.90;;;;;;7415541;19;20352;-88
2023/01/29 12:21:12;;;;;;;10.93;7.90;;;0.60;99.90;;;;;;7415642;19;20321;-89
2023/01/29 12:23:45;;;;;;;10.77;7.80;;;0.60;99.90;;;;;;7310297;19;2004158;-86
2023/01/29 12:26:16;;;;;;;13.77;8.45;;;0.60;99.90;;;;;;7415175;19;20316;-88
2023/01/29 12:28:58;;;;;;;10.10;7.95;;;0.60;99.90;;;;;;7414869;19;20337;-86
2023/01/29 12:31:45;;;;;;;9.40;7.32;;;0.60;99.90;;;;;;7310315;19;2004529;-88
2023/01/29 12:34:44;;;;;;;10.03;7.47;;;0.70;99.90;;;;;;7414964;19;20351;-88
2023/01/29 12:37:41;;;;;;;9.70;7.70;;;0.60;99.90;;;;;;7311391;19;2004345;-87
2023/01/29 12:40:14;;;;;;;8.37;6.87;;;0.70;99.90;;;;;;7311788;19;2003990;-86
2023/01/29 12:42:40;;;;;;;8.75;7.18;;;0.70;99.90;;;;;;7414219;19;21211;-86
2023/01/29 12:45:09;;;;;;;9.32;6.97;;;0.60;99.90;;;;;;7415066;19;20344;-86
2023/01/29 12:47:41;;;;;;;9.87;8.00;;;0.70;99.90;;;;;;7415646;19;20325;-87
2023/01/29 12:50:32;;;;;;;10.45;7.53;;;0.70;99.90;;;;;;7414875;19;20337;-87
2023/01/29 12:53:22;;;;;;;11.85;8.07;;;0.80;99.90;;;;;;7310792;19;2004026;-86
2023/01/29 12:55:54;;;;;;;10.60;7.70;;;0.90;99.90;;;;;;7414190;19;20313;-87
2023/01/29 12:58:31;;;;;;;15.80;10.65;;;0.80;99.90;;;;;;7311415;19;2003977;-88
2023/01/29 13:01:02;;;;;;;11.50;8.93;;;0.90;99.90;;;;;;7412637;19;20343;-86
2023/01/29 13:03:53;;;;;;;18.83;11.27;;;0.90;99.90;;;;;;7412518;19;20349;-87
2023/01/29 13:06:26;;;;;;;12.82;8.20;;;0.90;99.90;;;;;;7413653;19;20336;-87
2023/01/29 13:09:05;;;;;;;11.55;7.90;;;0.90;99.90;;;;;;7310753;19;2019159;-90
2023/01/29 13:11:40;;;;;;;8.20;7.10;;;1.00;99.90;;;;;;7411990;19;20803;-86
2023/01/29 13:14:13;;;;;;;11.80;7.53;;;1.00;99.90;;;;;;7413436;19;20336;-86
2023/01/29 13:16:41;;;;;;;8.65;6.93;;;1.00;99.90;;;;;;7413722;19;20333;-87
2023/01/29 13:19:27;;;;;;;9.25;7.03;;;1.00;99.90;;;;;;7413910;19;20309;-87
2023/01/29 13:21:53;;;;;;;7.78;6.72;;;1.10;99.90;;;;;;7307136;19;2004223;-87
2023/01/29 13:24:21;;;;;;;9.00;6.43;;;1.10;99.90;;;;;;7413463;19;20596;-87
2023/01/29 13:26:47;;;;;;;10.70;7.53;;;1.10;99.90;;;;;;7412399;19;20301;-87
2023/01/29 13:29:38;;;;;;;8.90;6.75;;;1.10;99.90;;;;;;7414071;19;20291;-86
2023/01/29 13:32:04;;;;;;;9.60;6.90;;;1.10;99.90;;;;;;7308928;19;2016806;-86